createdAt,value
2022-10-30T00:00:04.147Z,0.00
2022-10-30T00:01:04.127Z,0.00
2022-10-30T00:02:04.231Z,0.00
2022-10-30T00:03:04.348Z,0.00
2022-10-30T00:04:04.081Z,0.00
2022-10-30T00:05:04.065Z,0.00
2022-10-30T00:06:04.087Z,0.00
2022-10-30T00:07:04.055Z,0.00
2022-10-30T00:08:04.074Z,0.00
2022-10-30T00:09:04.025Z,0.00
2022-10-30T00:10:04.014Z,0.00
2022-10-30T00:11:04.014Z,0.00
2022-10-30T00:12:04.017Z,0.00
2022-10-30T00:13:04.000Z,0.00
2022-10-30T00:14:03.974Z,0.00
2022-10-30T00:15:03.970Z,0.00
2022-10-30T00:16:03.979Z,0.00
2022-10-30T00:17:03.935Z,0.00
2022-10-30T00:18:03.949Z,0.00
2022-10-30T00:19:03.921Z,0.00
2022-10-30T00:20:03.903Z,0.00
2022-10-30T00:21:03.903Z,0.00
2022-10-30T00:22:32.865Z,0.00
2022-10-30T00:23:32.845Z,0.00
2022-10-30T00:24:32.836Z,0.00
2022-10-30T00:25:32.826Z,0.00
2022-10-30T00:26:32.813Z,0.00
2022-10-30T00:27:32.827Z,0.00
2022-10-30T00:28:32.792Z,0.00
2022-10-30T00:29:32.776Z,0.00
2022-10-30T00:30:32.767Z,0.00
2022-10-30T00:31:32.774Z,0.00
2022-10-30T00:32:32.763Z,0.00
2022-10-30T00:33:32.737Z,0.00
2022-10-30T00:34:32.728Z,0.00
2022-10-30T00:35:32.843Z,0.00
2022-10-30T00:36:32.705Z,0.00
2022-10-30T00:37:32.713Z,0.00
2022-10-30T00:38:32.702Z,0.00
2022-10-30T00:39:32.680Z,0.00
2022-10-30T00:40:32.659Z,0.00
2022-10-30T00:41:32.668Z,0.00
2022-10-30T00:42:32.636Z,0.00
2022-10-30T00:43:32.672Z,0.00
2022-10-30T00:44:32.612Z,0.00
2022-10-30T00:45:32.602Z,0.00
2022-10-30T00:46:32.590Z,0.00
2022-10-30T00:47:32.606Z,0.00
2022-10-30T00:48:32.593Z,0.00
2022-10-30T00:49:32.557Z,0.00
2022-10-30T00:50:32.573Z,0.00
2022-10-30T00:51:32.566Z,0.00
2022-10-30T00:52:32.530Z,0.00
2022-10-30T00:53:32.510Z,0.00
2022-10-30T00:54:32.502Z,0.00
2022-10-30T00:55:32.488Z,0.00
2022-10-30T00:56:32.482Z,0.00
2022-10-30T00:57:32.495Z,0.00
2022-10-30T00:58:32.475Z,0.00
2022-10-30T00:59:32.452Z,0.00
2022-10-30T01:00:32.437Z,0.00
2022-10-30T01:01:32.636Z,0.00
2022-10-30T01:02:32.552Z,0.00
2022-10-30T01:03:32.439Z,0.00
2022-10-30T01:04:32.392Z,0.00
2022-10-30T01:05:32.409Z,0.00
2022-10-30T01:06:32.374Z,0.00
2022-10-30T01:07:32.363Z,0.00
2022-10-30T01:08:32.426Z,0.00
2022-10-30T01:09:32.341Z,0.00
2022-10-30T01:10:32.330Z,0.00
2022-10-30T01:11:32.315Z,0.00
2022-10-30T01:12:32.335Z,0.00
2022-10-30T01:13:32.292Z,0.00
2022-10-30T01:14:32.281Z,0.00
2022-10-30T01:15:32.273Z,0.00
2022-10-30T01:16:32.265Z,0.00
2022-10-30T01:17:32.251Z,0.00
2022-10-30T01:18:32.262Z,0.00
2022-10-30T01:19:32.253Z,0.00
2022-10-30T01:20:32.239Z,0.00
2022-10-30T01:21:32.205Z,0.00
2022-10-30T01:22:32.196Z,0.00
2022-10-30T01:23:32.205Z,0.00
2022-10-30T01:24:32.175Z,0.00
2022-10-30T01:25:32.164Z,0.00
2022-10-30T01:26:32.151Z,0.00
2022-10-30T01:27:32.145Z,0.00
2022-10-30T01:28:32.154Z,0.00
2022-10-30T01:29:32.126Z,0.00
2022-10-30T01:30:32.105Z,0.00
2022-10-30T01:31:32.125Z,0.00
2022-10-30T01:32:32.088Z,0.00
2022-10-30T01:33:32.074Z,0.00
2022-10-30T01:34:32.188Z,0.00
2022-10-30T01:35:32.100Z,0.00
2022-10-30T01:36:32.149Z,0.00
2022-10-30T01:37:32.033Z,0.00
2022-10-30T01:38:32.019Z,0.00
2022-10-30T01:39:32.016Z,0.00
2022-10-30T01:40:31.999Z,0.00
2022-10-30T01:41:32.010Z,0.00
2022-10-30T01:42:32.011Z,0.00
2022-10-30T01:43:31.964Z,0.00
2022-10-30T01:44:31.958Z,0.00
2022-10-30T01:45:31.941Z,0.00
2022-10-30T01:46:31.935Z,0.00
2022-10-30T01:47:31.924Z,0.00
2022-10-30T01:48:31.935Z,0.00
2022-10-30T01:49:31.900Z,0.00
2022-10-30T01:50:31.907Z,0.00
2022-10-30T01:51:31.918Z,0.00
2022-10-30T01:52:31.888Z,0.00
2022-10-30T01:53:31.877Z,0.00
2022-10-30T01:54:31.856Z,0.00
2022-10-30T01:55:31.852Z,0.00
2022-10-30T01:56:31.873Z,0.00
2022-10-30T01:57:31.818Z,0.00
2022-10-30T01:58:31.827Z,0.00
2022-10-30T01:59:31.793Z,0.00
2022-10-30T02:00:31.779Z,0.00
2022-10-30T02:01:32.013Z,0.00
2022-10-30T02:02:31.948Z,0.00
2022-10-30T02:03:31.778Z,0.00
2022-10-30T02:04:31.738Z,0.00
2022-10-30T02:05:31.733Z,0.00
2022-10-30T02:06:31.719Z,0.00
2022-10-30T02:07:31.725Z,0.00
2022-10-30T02:08:31.714Z,0.00
2022-10-30T02:09:31.692Z,0.00
2022-10-30T02:10:31.672Z,0.00
2022-10-30T02:11:31.685Z,0.00
2022-10-30T02:12:31.655Z,0.00
2022-10-30T02:13:31.663Z,0.00
2022-10-30T02:14:31.635Z,0.00
2022-10-30T02:15:31.622Z,0.00
2022-10-30T02:16:31.630Z,0.00
2022-10-30T02:17:31.594Z,0.00
2022-10-30T02:18:31.666Z,0.00
2022-10-30T02:19:31.578Z,0.00
2022-10-30T02:20:31.574Z,0.00
2022-10-30T02:21:31.563Z,0.00
2022-10-30T02:22:31.656Z,0.00
2022-10-30T02:23:31.559Z,0.00
2022-10-30T02:24:31.533Z,0.00
2022-10-30T02:25:31.514Z,0.00
2022-10-30T02:26:31.500Z,0.00
2022-10-30T02:27:31.515Z,0.00
2022-10-30T02:28:31.479Z,0.00
2022-10-30T02:29:31.470Z,0.00
2022-10-30T02:30:31.461Z,0.00
2022-10-30T02:31:31.462Z,0.00
2022-10-30T02:32:31.459Z,0.00
2022-10-30T02:33:31.444Z,0.00
2022-10-30T02:34:31.414Z,0.00
2022-10-30T02:35:31.406Z,0.00
2022-10-30T02:36:31.397Z,0.00
2022-10-30T02:37:31.433Z,0.00
2022-10-30T02:38:31.369Z,0.00
2022-10-30T02:39:31.399Z,0.00
2022-10-30T02:40:31.350Z,0.00
2022-10-30T02:41:31.341Z,0.00
2022-10-30T02:42:31.325Z,0.00
2022-10-30T02:43:31.329Z,0.00
2022-10-30T02:44:31.328Z,0.00
2022-10-30T02:45:31.297Z,0.00
2022-10-30T02:46:31.284Z,0.00
2022-10-30T02:47:31.277Z,0.00
2022-10-30T02:48:31.286Z,0.00
2022-10-30T02:49:31.252Z,0.00
2022-10-30T02:50:31.243Z,0.00
2022-10-30T02:51:31.230Z,0.00
2022-10-30T02:52:31.222Z,0.00
2022-10-30T02:53:31.234Z,0.00
2022-10-30T02:54:31.196Z,0.00
2022-10-30T02:55:31.211Z,0.00
2022-10-30T02:56:31.173Z,0.00
2022-10-30T02:57:31.166Z,0.00
2022-10-30T02:58:31.176Z,0.00
2022-10-30T02:59:31.146Z,0.00
2022-10-30T03:00:31.134Z,0.00
2022-10-30T03:01:31.269Z,0.00
2022-10-30T03:02:31.136Z,0.00
2022-10-30T03:03:31.102Z,0.00
2022-10-30T03:04:31.087Z,0.00
2022-10-30T03:05:31.078Z,0.00
2022-10-30T03:06:31.067Z,0.00
2022-10-30T03:07:31.062Z,0.00
2022-10-30T03:08:31.072Z,0.00
2022-10-30T03:09:31.037Z,0.00
2022-10-30T03:10:31.027Z,0.00
2022-10-30T03:11:31.035Z,0.00
2022-10-30T03:12:31.002Z,0.00
2022-10-30T03:13:31.013Z,0.00
2022-10-30T03:14:31.004Z,0.00
2022-10-30T03:15:30.968Z,0.00
2022-10-30T03:16:30.957Z,0.00
2022-10-30T03:17:31.049Z,0.00
2022-10-30T03:18:30.932Z,0.00
2022-10-30T03:19:30.944Z,0.00
2022-10-30T03:20:30.910Z,0.00
2022-10-30T03:21:30.906Z,0.00
2022-10-30T03:22:30.893Z,0.00
2022-10-30T03:23:30.880Z,0.00
2022-10-30T03:24:30.887Z,0.00
2022-10-30T03:25:30.865Z,0.00
2022-10-30T03:26:30.853Z,0.00
2022-10-30T03:27:30.855Z,0.00
2022-10-30T03:28:30.825Z,0.00
2022-10-30T03:29:30.832Z,0.00
2022-10-30T03:30:30.808Z,0.00
2022-10-30T03:31:30.822Z,0.00
2022-10-30T03:32:30.780Z,0.00
2022-10-30T03:33:30.773Z,0.00
2022-10-30T03:34:30.760Z,0.00
2022-10-30T03:35:30.747Z,0.00
2022-10-30T03:36:30.753Z,0.00
2022-10-30T03:37:30.727Z,0.00
2022-10-30T03:38:30.722Z,0.00
2022-10-30T03:39:30.709Z,0.00
2022-10-30T03:40:30.711Z,0.00
2022-10-30T03:41:30.701Z,0.00
2022-10-30T03:42:30.667Z,0.00
2022-10-30T03:43:30.683Z,0.00
2022-10-30T03:44:30.650Z,0.00
2022-10-30T03:45:30.638Z,0.00
2022-10-30T03:46:30.651Z,0.00
2022-10-30T03:47:30.617Z,0.00
2022-10-30T03:48:30.614Z,0.00
2022-10-30T03:49:30.593Z,0.00
2022-10-30T03:50:30.577Z,0.00
2022-10-30T03:51:30.576Z,0.00
2022-10-30T03:52:30.580Z,0.00
2022-10-30T03:53:30.551Z,0.00
2022-10-30T03:54:30.534Z,0.00
2022-10-30T03:55:30.526Z,0.00
2022-10-30T03:56:30.515Z,0.00
2022-10-30T03:57:30.528Z,0.00
2022-10-30T03:58:30.495Z,0.00
2022-10-30T03:59:30.502Z,0.00
2022-10-30T04:00:30.475Z,0.00
2022-10-30T04:01:30.589Z,0.00
2022-10-30T04:02:30.472Z,0.00
2022-10-30T04:03:30.435Z,0.00
2022-10-30T04:04:30.428Z,0.00
2022-10-30T04:05:30.418Z,0.00
2022-10-30T04:06:30.406Z,0.00
2022-10-30T04:07:30.419Z,0.00
2022-10-30T04:08:30.386Z,0.00
2022-10-30T04:09:30.374Z,0.00
2022-10-30T04:10:30.358Z,0.00
2022-10-30T04:11:30.509Z,0.00
2022-10-30T04:12:30.363Z,0.00
2022-10-30T04:13:30.331Z,0.00
2022-10-30T04:14:30.321Z,0.00
2022-10-30T04:15:30.327Z,0.00
2022-10-30T04:16:30.294Z,0.00
2022-10-30T04:17:30.317Z,0.00
2022-10-30T04:18:30.274Z,0.00
2022-10-30T04:19:30.260Z,0.00
2022-10-30T04:20:30.249Z,0.00
2022-10-30T04:21:30.243Z,0.00
2022-10-30T04:22:30.235Z,0.00
2022-10-30T04:23:30.239Z,0.00
2022-10-30T04:24:30.206Z,0.00
2022-10-30T04:25:30.198Z,0.00
2022-10-30T04:26:30.183Z,0.00
2022-10-30T04:27:30.179Z,0.00
2022-10-30T04:28:30.182Z,0.00
2022-10-30T04:29:30.152Z,0.00
2022-10-30T04:30:30.138Z,0.00
2022-10-30T04:31:30.147Z,0.00
2022-10-30T04:32:30.126Z,0.00
2022-10-30T04:33:30.132Z,0.00
2022-10-30T04:34:30.092Z,0.00
2022-10-30T04:35:30.086Z,0.00
2022-10-30T04:36:30.091Z,0.00
2022-10-30T04:37:30.060Z,0.00
2022-10-30T04:38:30.075Z,0.00
2022-10-30T04:39:30.039Z,0.00
2022-10-30T04:40:30.037Z,0.00
2022-10-30T04:41:30.040Z,0.00
2022-10-30T04:42:30.005Z,0.00
2022-10-30T04:43:30.018Z,0.00
2022-10-30T04:44:29.985Z,0.00
2022-10-30T04:45:29.978Z,0.00
2022-10-30T04:46:29.961Z,0.00
2022-10-30T04:47:30.101Z,0.00
2022-10-30T04:48:29.960Z,0.00
2022-10-30T04:49:29.932Z,0.00
2022-10-30T04:50:29.916Z,0.00
2022-10-30T04:51:29.912Z,0.00
2022-10-30T04:52:29.897Z,0.00
2022-10-30T04:53:29.917Z,0.00
2022-10-30T04:54:29.869Z,0.00
2022-10-30T04:55:29.865Z,0.00
2022-10-30T04:56:29.851Z,0.00
2022-10-30T04:57:29.838Z,0.00
2022-10-30T04:58:29.849Z,0.00
2022-10-30T04:59:29.818Z,0.00
2022-10-30T05:00:29.810Z,0.00
2022-10-30T05:01:29.921Z,0.00
2022-10-30T05:02:30.008Z,0.00
2022-10-30T05:03:29.814Z,0.00
2022-10-30T05:04:29.764Z,0.00
2022-10-30T05:05:29.779Z,0.00
2022-10-30T05:06:29.741Z,0.00
2022-10-30T05:07:29.739Z,0.00
2022-10-30T05:08:29.729Z,0.00
2022-10-30T05:09:29.703Z,0.00
2022-10-30T05:10:29.710Z,0.00
2022-10-30T05:11:29.684Z,0.00
2022-10-30T05:12:29.692Z,0.00
2022-10-30T05:13:29.657Z,0.00
2022-10-30T05:14:29.650Z,0.00
2022-10-30T05:15:29.642Z,0.00
2022-10-30T05:16:29.627Z,0.00
2022-10-30T05:18:29.617Z,0.00
2022-10-30T05:19:29.639Z,0.00
2022-10-30T05:20:29.585Z,0.00
2022-10-30T05:21:29.573Z,0.00
2022-10-30T05:22:29.582Z,0.00
2022-10-30T05:23:29.553Z,0.00
2022-10-30T05:24:29.557Z,0.00
2022-10-30T05:25:29.531Z,0.00
2022-10-30T05:26:29.517Z,0.00
2022-10-30T05:27:29.507Z,0.00
2022-10-30T05:28:29.520Z,0.00
2022-10-30T05:29:29.500Z,0.00
2022-10-30T05:30:29.477Z,0.00
2022-10-30T05:31:29.460Z,0.00
2022-10-30T05:32:29.456Z,0.00
2022-10-30T05:33:29.463Z,0.00
2022-10-30T05:34:29.427Z,0.00
2022-10-30T05:35:29.441Z,0.00
2022-10-30T05:36:29.408Z,0.00
2022-10-30T05:37:29.399Z,0.00
2022-10-30T05:38:29.420Z,0.00
2022-10-30T05:39:29.372Z,0.00
2022-10-30T05:40:29.365Z,0.00
2022-10-30T05:41:29.350Z,0.00
2022-10-30T05:42:29.335Z,0.00
2022-10-30T05:43:29.355Z,0.00
2022-10-30T05:44:58.718Z,0.00
2022-10-30T05:45:30.309Z,0.00
2022-10-30T05:46:29.320Z,0.00
2022-10-30T05:47:29.290Z,0.00
2022-10-30T05:48:29.284Z,0.00
2022-10-30T05:49:29.262Z,0.00
2022-10-30T05:50:29.257Z,0.00
2022-10-30T05:51:29.294Z,0.00
2022-10-30T05:52:29.257Z,0.00
2022-10-30T05:53:29.224Z,0.00
2022-10-30T05:54:29.211Z,0.00
2022-10-30T05:55:29.199Z,0.00
2022-10-30T05:56:29.208Z,0.00
2022-10-30T05:57:29.175Z,0.00
2022-10-30T05:58:29.168Z,0.00
2022-10-30T05:59:29.152Z,0.00
2022-10-30T06:00:29.173Z,0.00
2022-10-30T06:01:29.283Z,0.00
2022-10-30T06:02:29.180Z,0.00
2022-10-30T06:03:29.205Z,0.00
2022-10-30T06:04:29.101Z,0.00
2022-10-30T06:05:29.089Z,0.00
2022-10-30T06:06:29.102Z,0.00
2022-10-30T06:07:29.091Z,0.00
2022-10-30T06:08:29.052Z,0.00
2022-10-30T06:09:29.044Z,0.00
2022-10-30T06:10:29.033Z,0.00
2022-10-30T06:11:29.043Z,0.00
2022-10-30T06:12:29.014Z,0.00
2022-10-30T06:13:28.998Z,0.00
2022-10-30T06:14:28.989Z,0.00
2022-10-30T06:15:28.974Z,0.00
2022-10-30T06:16:29.048Z,0.00
2022-10-30T06:17:28.961Z,0.00
2022-10-30T06:18:28.944Z,0.00
2022-10-30T06:19:28.938Z,0.00
2022-10-30T06:20:28.932Z,0.00
2022-10-30T06:21:28.928Z,0.00
2022-10-30T06:22:28.909Z,0.00
2022-10-30T06:23:28.903Z,0.00
2022-10-30T06:24:28.876Z,0.00
2022-10-30T06:25:28.869Z,0.00
2022-10-30T06:26:28.873Z,0.00
2022-10-30T06:27:28.844Z,0.00
2022-10-30T06:28:28.828Z,0.00
2022-10-30T06:29:28.850Z,0.00
2022-10-30T06:30:28.814Z,0.00
2022-10-30T06:31:28.806Z,0.00
2022-10-30T06:32:28.795Z,0.00
2022-10-30T06:33:28.780Z,0.00
2022-10-30T06:34:28.789Z,0.00
2022-10-30T06:35:28.758Z,0.00
2022-10-30T06:36:28.752Z,0.00
2022-10-30T06:37:28.742Z,0.00
2022-10-30T06:38:28.723Z,5.62
2022-10-30T06:39:28.748Z,5.62
2022-10-30T06:40:28.726Z,5.62
2022-10-30T06:41:30.412Z,5.62
2022-10-30T06:42:28.684Z,5.62
2022-10-30T06:43:28.665Z,5.62
2022-10-30T06:44:28.658Z,5.62
2022-10-30T06:45:28.678Z,5.62
2022-10-30T06:46:32.528Z,5.62
2022-10-30T06:47:29.626Z,5.62
2022-10-30T06:48:28.611Z,5.62
2022-10-30T06:49:28.601Z,5.62
2022-10-30T06:50:28.605Z,5.62
2022-10-30T06:51:28.606Z,5.62
2022-10-30T06:52:28.569Z,11.25
2022-10-30T06:53:28.557Z,11.25
2022-10-30T06:54:28.566Z,11.25
2022-10-30T06:55:28.552Z,11.25
2022-10-30T06:56:28.547Z,11.25
2022-10-30T06:57:28.522Z,11.25
2022-10-30T06:58:28.525Z,11.25
2022-10-30T06:59:28.496Z,11.25
2022-10-30T07:00:28.495Z,11.25
2022-10-30T07:01:28.538Z,11.25
2022-10-30T07:02:28.703Z,11.25
2022-10-30T07:03:28.451Z,11.25
2022-10-30T07:04:28.436Z,11.25
2022-10-30T07:05:28.424Z,11.25
2022-10-30T07:06:28.431Z,11.25
2022-10-30T07:07:28.403Z,11.25
2022-10-30T07:08:28.412Z,11.25
2022-10-30T07:09:28.378Z,11.25
2022-10-30T07:10:28.387Z,11.25
2022-10-30T07:11:28.398Z,11.25
2022-10-30T07:12:28.366Z,11.25
2022-10-30T07:13:28.336Z,11.25
2022-10-30T07:14:28.329Z,11.25
2022-10-30T07:15:28.375Z,16.88
2022-10-30T07:16:28.325Z,16.88
2022-10-30T07:17:28.312Z,16.88
2022-10-30T07:18:28.283Z,16.88
2022-10-30T07:19:28.270Z,11.25
2022-10-30T07:20:28.267Z,11.25
2022-10-30T07:21:28.250Z,11.25
2022-10-30T07:22:28.260Z,11.25
2022-10-30T07:23:28.222Z,11.25
2022-10-30T07:24:28.219Z,11.25
2022-10-30T07:25:28.205Z,11.25
2022-10-30T07:26:28.198Z,11.25
2022-10-30T07:27:28.231Z,11.25
2022-10-30T07:28:28.174Z,11.25
2022-10-30T07:29:28.164Z,16.88
2022-10-30T07:30:28.389Z,16.88
2022-10-30T07:31:41.552Z,16.88
2022-10-30T07:32:29.158Z,16.88
2022-10-30T07:33:28.120Z,22.50
2022-10-30T07:34:28.106Z,22.50
2022-10-30T07:35:28.099Z,22.50
2022-10-30T07:36:28.100Z,28.12
2022-10-30T07:37:28.081Z,28.12
2022-10-30T07:38:28.113Z,28.12
2022-10-30T07:39:28.052Z,28.12
2022-10-30T07:40:28.120Z,28.12
2022-10-30T07:41:28.030Z,28.12
2022-10-30T07:42:28.037Z,33.75
2022-10-30T07:43:28.030Z,33.75
2022-10-30T07:44:28.003Z,33.75
2022-10-30T07:45:27.994Z,39.38
2022-10-30T07:46:28.001Z,33.75
2022-10-30T07:47:27.962Z,33.75
2022-10-30T07:48:27.953Z,33.75
2022-10-30T07:49:27.946Z,28.12
2022-10-30T07:50:28.043Z,28.12
2022-10-30T07:51:27.943Z,22.50
2022-10-30T07:52:27.910Z,22.50
2022-10-30T07:53:27.895Z,22.50
2022-10-30T07:54:27.921Z,22.50
2022-10-30T07:55:27.880Z,22.50
2022-10-30T07:56:27.903Z,22.50
2022-10-30T07:57:27.857Z,22.50
2022-10-30T07:58:27.844Z,22.50
2022-10-30T07:59:27.853Z,22.50
2022-10-30T08:00:27.969Z,22.50
2022-10-30T08:01:28.005Z,22.50
2022-10-30T08:02:27.970Z,22.50
2022-10-30T08:03:27.787Z,22.50
2022-10-30T08:04:27.790Z,22.50
2022-10-30T08:05:29.909Z,22.50
2022-10-30T08:06:27.765Z,22.50
2022-10-30T08:07:27.777Z,22.50
2022-10-30T08:08:27.738Z,22.50
2022-10-30T08:09:27.743Z,22.50
2022-10-30T08:10:27.738Z,22.50
2022-10-30T08:11:27.715Z,22.50
2022-10-30T08:12:27.695Z,22.50
2022-10-30T08:13:27.680Z,22.50
2022-10-30T08:14:27.677Z,22.50
2022-10-30T08:15:27.699Z,22.50
2022-10-30T08:16:27.671Z,22.50
2022-10-30T08:17:27.652Z,22.50
2022-10-30T08:18:27.628Z,22.50
2022-10-30T08:19:27.615Z,22.50
2022-10-30T08:20:27.632Z,28.12
2022-10-30T08:21:27.593Z,28.12
2022-10-30T08:22:27.586Z,28.12
2022-10-30T08:23:27.568Z,33.75
2022-10-30T08:24:27.566Z,33.75
2022-10-30T08:25:27.571Z,33.75
2022-10-30T08:26:27.543Z,39.38
2022-10-30T08:27:27.525Z,39.38
2022-10-30T08:28:31.678Z,39.38
2022-10-30T08:29:28.504Z,33.75
2022-10-30T08:30:27.627Z,33.75
2022-10-30T08:31:27.546Z,28.12
2022-10-30T08:32:27.477Z,28.12
2022-10-30T08:33:27.479Z,33.75
2022-10-30T08:34:27.457Z,33.75
2022-10-30T08:35:27.545Z,28.12
2022-10-30T08:36:27.431Z,33.75
2022-10-30T08:37:27.443Z,33.75
2022-10-30T08:38:27.416Z,33.75
2022-10-30T08:39:27.396Z,33.75
2022-10-30T08:40:27.383Z,39.38
2022-10-30T08:41:27.380Z,39.38
2022-10-30T08:42:27.389Z,33.75
2022-10-30T08:43:27.381Z,33.75
2022-10-30T08:44:27.349Z,33.75
2022-10-30T08:45:30.924Z,28.12
2022-10-30T08:46:27.322Z,28.12
2022-10-30T08:47:27.326Z,28.12
2022-10-30T08:48:27.329Z,28.12
2022-10-30T08:49:27.300Z,28.12
2022-10-30T08:50:27.276Z,28.12
2022-10-30T08:51:27.267Z,33.75
2022-10-30T08:52:27.263Z,33.75
2022-10-30T08:53:27.252Z,33.75
2022-10-30T08:54:27.256Z,39.38
2022-10-30T08:55:27.218Z,45.00
2022-10-30T08:56:27.207Z,50.62
2022-10-30T08:57:27.200Z,56.25
2022-10-30T08:58:27.186Z,61.88
2022-10-30T08:59:27.195Z,56.25
2022-10-30T09:00:27.164Z,50.62
2022-10-30T09:01:27.360Z,45.00
2022-10-30T09:02:27.211Z,45.00
2022-10-30T09:03:27.154Z,39.38
2022-10-30T09:04:27.143Z,39.38
2022-10-30T09:05:27.107Z,45.00
2022-10-30T09:06:27.096Z,45.00
2022-10-30T09:07:27.087Z,50.62
2022-10-30T09:08:27.078Z,56.25
2022-10-30T09:09:27.086Z,61.88
2022-10-30T09:10:27.053Z,61.88
2022-10-30T09:11:27.038Z,67.50
2022-10-30T09:12:27.055Z,67.50
2022-10-30T09:13:27.016Z,61.88
2022-10-30T09:14:27.008Z,67.50
2022-10-30T09:15:27.004Z,67.50
2022-10-30T09:16:27.009Z,73.12
2022-10-30T09:17:26.972Z,61.88
2022-10-30T09:18:26.964Z,56.25
2022-10-30T09:19:26.971Z,50.62
2022-10-30T09:20:27.004Z,45.00
2022-10-30T09:21:26.951Z,39.38
2022-10-30T09:22:26.959Z,39.38
2022-10-30T09:23:26.910Z,39.38
2022-10-30T09:24:26.895Z,39.38
2022-10-30T09:25:26.890Z,39.38
2022-10-30T09:26:26.877Z,45.00
2022-10-30T09:27:26.863Z,45.00
2022-10-30T09:28:26.875Z,45.00
2022-10-30T09:29:26.845Z,45.00
2022-10-30T09:30:26.828Z,39.38
2022-10-30T09:31:26.820Z,33.75
2022-10-30T09:32:26.823Z,33.75
2022-10-30T09:33:26.822Z,33.75
2022-10-30T09:35:26.800Z,28.12
2022-10-30T09:36:26.769Z,28.12
2022-10-30T09:37:26.751Z,28.12
2022-10-30T09:38:26.762Z,33.75
2022-10-30T09:39:26.728Z,33.75
2022-10-30T09:40:26.739Z,33.75
2022-10-30T09:41:26.704Z,33.75
2022-10-30T09:42:26.693Z,33.75
2022-10-30T09:43:26.687Z,39.38
2022-10-30T09:44:26.676Z,39.38
2022-10-30T09:45:29.633Z,39.38
2022-10-30T09:46:26.654Z,45.00
2022-10-30T09:47:26.648Z,45.00
2022-10-30T09:48:26.629Z,45.00
2022-10-30T09:49:26.620Z,45.00
2022-10-30T09:50:26.604Z,45.00
2022-10-30T09:51:26.641Z,45.00
2022-10-30T09:52:26.578Z,39.38
2022-10-30T09:53:26.576Z,39.38
2022-10-30T09:54:26.563Z,39.38
2022-10-30T09:55:26.555Z,39.38
2022-10-30T09:56:26.558Z,39.38
2022-10-30T09:57:26.531Z,33.75
2022-10-30T09:58:26.513Z,33.75
2022-10-30T09:59:26.524Z,33.75
2022-10-30T10:00:26.490Z,33.75
2022-10-30T10:01:26.621Z,33.75
2022-10-30T10:02:26.643Z,33.75
2022-10-30T10:03:26.465Z,33.75
2022-10-30T10:04:27.147Z,33.75
2022-10-30T10:05:26.440Z,33.75
2022-10-30T10:06:26.426Z,33.75
2022-10-30T10:07:26.431Z,33.75
2022-10-30T10:08:26.405Z,33.75
2022-10-30T10:09:26.416Z,33.75
2022-10-30T10:10:26.382Z,33.75
2022-10-30T10:11:26.377Z,33.75
2022-10-30T10:12:26.368Z,33.75
2022-10-30T10:13:26.354Z,33.75
2022-10-30T10:14:26.376Z,33.75
2022-10-30T10:15:26.328Z,33.75
2022-10-30T10:16:26.316Z,33.75
2022-10-30T10:17:26.308Z,33.75
2022-10-30T10:18:26.368Z,33.75
2022-10-30T10:19:26.282Z,33.75
2022-10-30T10:20:26.299Z,33.75
2022-10-30T10:21:26.259Z,33.75
2022-10-30T10:22:26.269Z,33.75
2022-10-30T10:23:26.269Z,33.75
2022-10-30T10:24:26.228Z,33.75
2022-10-30T10:25:26.248Z,33.75
2022-10-30T10:26:26.208Z,33.75
2022-10-30T10:27:26.197Z,39.38
2022-10-30T10:28:26.182Z,39.38
2022-10-30T10:29:26.194Z,39.38
2022-10-30T10:30:26.162Z,39.38
2022-10-30T10:31:26.154Z,39.38
2022-10-30T10:32:26.137Z,39.38
2022-10-30T10:33:26.143Z,39.38
2022-10-30T10:34:26.141Z,39.38
2022-10-30T10:35:26.114Z,39.38
2022-10-30T10:36:26.092Z,39.38
2022-10-30T10:37:26.083Z,39.38
2022-10-30T10:38:26.075Z,39.38
2022-10-30T10:39:26.121Z,39.38
2022-10-30T10:40:26.055Z,39.38
2022-10-30T10:41:26.045Z,39.38
2022-10-30T10:42:26.039Z,39.38
2022-10-30T10:43:26.029Z,39.38
2022-10-30T10:44:26.008Z,39.38
2022-10-30T10:45:26.024Z,39.38
2022-10-30T10:46:26.013Z,39.38
2022-10-30T10:47:25.978Z,39.38
2022-10-30T10:48:25.969Z,39.38
2022-10-30T10:49:25.954Z,39.38
2022-10-30T10:50:25.970Z,39.38
2022-10-30T10:51:25.934Z,39.38
2022-10-30T10:52:25.953Z,39.38
2022-10-30T10:53:26.053Z,39.38
2022-10-30T10:54:25.909Z,39.38
2022-10-30T10:55:25.907Z,39.38
2022-10-30T10:56:25.897Z,39.38
2022-10-30T10:57:25.870Z,39.38
2022-10-30T10:58:25.874Z,39.38
2022-10-30T10:59:25.857Z,39.38
2022-10-30T11:00:25.844Z,39.38
2022-10-30T11:01:25.946Z,39.38
2022-10-30T11:02:26.001Z,39.38
2022-10-30T11:03:25.822Z,39.38
2022-10-30T11:04:25.787Z,39.38
2022-10-30T11:05:25.787Z,39.38
2022-10-30T11:06:25.769Z,39.38
2022-10-30T11:07:25.757Z,39.38
2022-10-30T11:08:25.770Z,39.38
2022-10-30T11:09:25.760Z,39.38
2022-10-30T11:10:25.732Z,39.38
2022-10-30T11:11:25.734Z,39.38
2022-10-30T11:12:25.701Z,39.38
2022-10-30T11:13:25.700Z,39.38
2022-10-30T11:14:25.698Z,39.38
2022-10-30T11:15:25.675Z,39.38
2022-10-30T11:16:25.657Z,39.38
2022-10-30T11:17:25.644Z,39.38
2022-10-30T11:18:25.655Z,39.38
2022-10-30T11:19:25.624Z,39.38
2022-10-30T11:20:25.628Z,39.38
2022-10-30T11:21:25.624Z,39.38
2022-10-30T11:22:25.590Z,39.38
2022-10-30T11:23:25.605Z,39.38
2022-10-30T11:24:25.572Z,39.38
2022-10-30T11:25:28.598Z,39.38
2022-10-30T11:26:25.549Z,39.38
2022-10-30T11:27:25.557Z,39.38
2022-10-30T11:28:25.524Z,39.38
2022-10-30T11:29:25.545Z,39.38
2022-10-30T11:30:25.504Z,39.38
2022-10-30T11:31:25.493Z,39.38
2022-10-30T11:32:25.510Z,39.38
2022-10-30T11:33:25.469Z,39.38
2022-10-30T11:34:25.457Z,39.38
2022-10-30T11:35:25.444Z,39.38
2022-10-30T11:36:25.438Z,39.38
2022-10-30T11:37:25.453Z,39.38
2022-10-30T11:38:25.419Z,39.38
2022-10-30T11:39:25.404Z,39.38
2022-10-30T11:40:25.424Z,39.38
2022-10-30T11:41:25.382Z,39.38
2022-10-30T11:42:25.367Z,39.38
2022-10-30T11:43:25.382Z,39.38
2022-10-30T11:44:25.350Z,39.38
2022-10-30T11:45:25.337Z,39.38
2022-10-30T11:46:25.349Z,39.38
2022-10-30T11:47:25.371Z,39.38
2022-10-30T11:48:26.058Z,39.38
2022-10-30T11:49:25.301Z,39.38
2022-10-30T11:50:25.283Z,39.38
2022-10-30T11:51:25.337Z,39.38
2022-10-30T11:52:25.267Z,39.38
2022-10-30T11:53:25.282Z,39.38
2022-10-30T11:54:25.237Z,39.38
2022-10-30T11:55:25.233Z,39.38
2022-10-30T11:56:25.228Z,39.38
2022-10-30T11:57:25.212Z,39.38
2022-10-30T11:58:25.230Z,39.38
2022-10-30T11:59:25.207Z,39.38
2022-10-30T12:00:25.174Z,39.38
2022-10-30T12:01:25.250Z,33.75
2022-10-30T12:02:25.330Z,33.75
2022-10-30T12:03:25.163Z,39.38
2022-10-30T12:04:25.134Z,39.38
2022-10-30T12:05:25.125Z,39.38
2022-10-30T12:06:25.112Z,33.75
2022-10-30T12:07:25.095Z,33.75
2022-10-30T12:08:25.111Z,33.75
2022-10-30T12:09:25.103Z,33.75
2022-10-30T12:10:25.075Z,39.38
2022-10-30T12:11:25.071Z,39.38
2022-10-30T12:12:25.044Z,39.38
2022-10-30T12:13:25.038Z,39.38
2022-10-30T12:14:25.046Z,45.00
2022-10-30T12:15:25.040Z,45.00
2022-10-30T12:16:25.001Z,50.62
2022-10-30T12:17:24.990Z,50.62
2022-10-30T12:18:25.029Z,50.62
2022-10-30T12:19:24.990Z,50.62
2022-10-30T12:20:24.956Z,45.00
2022-10-30T12:21:24.948Z,39.38
2022-10-30T12:22:24.931Z,39.38
2022-10-30T12:23:24.926Z,33.75
2022-10-30T12:24:24.934Z,33.75
2022-10-30T12:25:24.899Z,33.75
2022-10-30T12:26:24.896Z,33.75
2022-10-30T12:27:24.881Z,33.75
2022-10-30T12:28:24.862Z,33.75
2022-10-30T12:29:36.550Z,33.75
2022-10-30T12:30:25.846Z,33.75
2022-10-30T12:31:24.855Z,33.75
2022-10-30T12:32:24.823Z,33.75
2022-10-30T12:33:24.814Z,33.75
2022-10-30T12:34:24.818Z,33.75
2022-10-30T12:35:24.791Z,28.12
2022-10-30T12:36:24.781Z,28.12
2022-10-30T12:37:24.767Z,28.12
2022-10-30T12:38:24.753Z,28.12
2022-10-30T12:39:24.760Z,28.12
2022-10-30T12:40:24.727Z,28.12
2022-10-30T12:41:24.718Z,28.12
2022-10-30T12:42:24.707Z,28.12
2022-10-30T12:43:24.696Z,28.12
2022-10-30T12:44:24.713Z,28.12
2022-10-30T12:45:24.676Z,28.12
2022-10-30T12:46:24.667Z,28.12
2022-10-30T12:47:24.671Z,28.12
2022-10-30T12:48:24.641Z,28.12
2022-10-30T12:49:24.626Z,28.12
2022-10-30T12:50:24.641Z,28.12
2022-10-30T12:51:24.626Z,28.12
2022-10-30T12:52:24.616Z,28.12
2022-10-30T12:53:24.590Z,28.12
2022-10-30T12:54:24.577Z,28.12
2022-10-30T12:55:24.569Z,28.12
2022-10-30T12:56:24.551Z,28.12
2022-10-30T12:57:24.564Z,28.12
2022-10-30T12:58:24.526Z,28.12
2022-10-30T12:59:24.520Z,28.12
2022-10-30T13:00:24.505Z,28.12
2022-10-30T13:01:24.714Z,28.12
2022-10-30T13:02:24.564Z,28.12
2022-10-30T13:03:24.496Z,28.12
2022-10-30T13:04:24.463Z,28.12
2022-10-30T13:05:24.462Z,28.12
2022-10-30T13:06:24.439Z,28.12
2022-10-30T13:07:24.458Z,22.50